createdAt,value
2023-02-22T00:02:29.579Z,10.00
2023-02-22T00:04:58.532Z,9.90
2023-02-22T00:07:50.830Z,9.90
2023-02-22T00:10:59.517Z,10.00
2023-02-22T00:20:24.624Z,10.00
2023-02-22T00:23:29.095Z,10.10
2023-02-22T00:29:05.083Z,10.00
2023-02-22T00:31:59.261Z,10.00
2023-02-22T00:34:58.373Z,10.00
2023-02-22T00:43:54.864Z,10.00
2023-02-22T00:46:44.296Z,10.00
2023-02-22T00:49:21.053Z,9.90
2023-02-22T00:52:24.831Z,9.80
2023-02-22T00:58:05.891Z,9.80
2023-02-22T01:00:50.672Z,9.80
2023-02-22T01:03:29.240Z,9.80
2023-02-22T01:06:00.620Z,9.80
2023-02-22T01:08:42.530Z,9.80
2023-02-22T01:14:33.435Z,9.70
2023-02-22T01:17:23.983Z,9.70
2023-02-22T01:19:59.332Z,9.60
2023-02-22T01:22:50.211Z,9.60
2023-02-22T01:25:39.223Z,9.60
2023-02-22T01:28:21.089Z,9.50
2023-02-22T01:31:07.897Z,9.50
2023-02-22T01:33:44.934Z,9.50
2023-02-22T01:36:38.060Z,9.50
2023-02-22T01:39:30.215Z,9.40
2023-02-22T01:42:10.905Z,9.40
2023-02-22T01:45:04.767Z,9.40
2023-02-22T01:53:47.012Z,9.30
2023-02-22T01:59:27.991Z,9.20
2023-02-22T02:02:19.323Z,9.20
2023-02-22T02:10:38.214Z,9.10
2023-02-22T02:13:28.132Z,8.90
2023-02-22T02:16:06.094Z,8.90
2023-02-22T02:22:00.008Z,8.70
2023-02-22T02:24:59.340Z,8.70
2023-02-22T02:27:48.656Z,8.70
2023-02-22T02:30:52.987Z,8.70
2023-02-22T02:33:40.616Z,8.70
2023-02-22T02:36:29.087Z,8.70
2023-02-22T02:39:08.429Z,8.70
2023-02-22T02:41:52.921Z,8.60
2023-02-22T02:44:37.944Z,8.60
2023-02-22T02:50:37.486Z,8.50
2023-02-22T02:53:30.745Z,8.50
2023-02-22T02:59:13.569Z,8.60
2023-02-22T03:02:04.290Z,8.70
2023-02-22T03:04:50.688Z,8.70
2023-02-22T03:07:33.465Z,8.70
2023-02-22T03:10:15.649Z,8.80
2023-02-22T03:15:50.059Z,8.90
2023-02-22T03:18:43.659Z,8.90
2023-02-22T03:21:31.213Z,8.90
2023-02-22T03:24:31.801Z,8.90
2023-02-22T03:27:17.572Z,9.00
2023-02-22T03:30:02.841Z,9.00
2023-02-22T03:32:57.481Z,9.00
2023-02-22T03:35:57.422Z,9.00
2023-02-22T03:38:48.299Z,9.00
2023-02-22T03:41:29.092Z,9.10
2023-02-22T03:44:18.061Z,9.20
2023-02-22T03:46:51.661Z,9.30
2023-02-22T03:49:36.305Z,9.20
2023-02-22T03:52:49.721Z,9.20
2023-02-22T03:55:38.643Z,9.30
2023-02-22T03:58:17.898Z,9.20
2023-02-22T04:01:03.806Z,9.30
2023-02-22T04:03:49.698Z,9.20
2023-02-22T04:06:27.332Z,9.20
2023-02-22T04:09:02.221Z,9.30
2023-02-22T04:11:55.023Z,9.20
2023-02-22T04:17:14.230Z,9.20
2023-02-22T04:22:46.264Z,9.20
2023-02-22T04:25:29.373Z,9.20
2023-02-22T04:28:10.341Z,9.20
2023-02-22T04:30:58.280Z,9.20
2023-02-22T04:33:43.933Z,9.20
2023-02-22T04:36:17.830Z,9.20
2023-02-22T04:41:52.721Z,9.20
2023-02-22T04:44:35.513Z,9.30
2023-02-22T04:47:11.330Z,9.30
2023-02-22T04:52:49.582Z,9.20
2023-02-22T04:55:30.851Z,9.20
2023-02-22T04:58:05.157Z,9.10
2023-02-22T05:00:46.550Z,9.10
2023-02-22T05:03:21.889Z,9.00
2023-02-22T05:05:58.691Z,9.00
2023-02-22T05:08:32.830Z,9.00
2023-02-22T05:11:12.922Z,9.00
2023-02-22T05:13:54.389Z,9.00
2023-02-22T05:16:51.010Z,9.10
2023-02-22T05:19:49.089Z,9.10
2023-02-22T05:22:21.730Z,9.20
2023-02-22T05:25:22.740Z,9.20
2023-02-22T05:27:53.849Z,9.20
2023-02-22T05:30:43.246Z,9.20
2023-02-22T05:33:16.100Z,9.20
2023-02-22T05:35:55.970Z,9.20
2023-02-22T05:38:28.642Z,9.20
2023-02-22T05:41:02.209Z,9.10
2023-02-22T05:46:31.107Z,9.10
2023-02-22T05:49:25.436Z,9.00
2023-02-22T05:52:32.782Z,9.00
2023-02-22T05:55:23.384Z,9.00
2023-02-22T05:58:29.089Z,9.00
2023-02-22T06:01:15.600Z,9.00
2023-02-22T06:04:10.540Z,9.00
2023-02-22T06:06:42.777Z,9.00
2023-02-22T06:09:28.356Z,9.00
2023-02-22T06:12:02.222Z,9.10
2023-02-22T06:14:47.487Z,9.00
2023-02-22T06:17:20.308Z,9.00
2023-02-22T06:19:53.754Z,9.00
2023-02-22T06:22:30.056Z,9.10
2023-02-22T06:28:16.295Z,9.10
2023-02-22T06:31:08.041Z,9.20
2023-02-22T06:33:47.345Z,9.20
2023-02-22T06:36:25.408Z,9.20
2023-02-22T06:38:55.326Z,9.20
2023-02-22T06:41:37.725Z,9.50
2023-02-22T06:44:31.244Z,9.40
2023-02-22T06:50:04.448Z,9.30
2023-02-22T06:52:41.084Z,9.00
2023-02-22T06:55:41.496Z,9.30
2023-02-22T06:58:25.936Z,9.30
2023-02-22T07:01:21.477Z,9.30
2023-02-22T07:03:59.663Z,9.30
2023-02-22T07:06:32.617Z,9.40
2023-02-22T07:09:04.621Z,9.30
2023-02-22T07:11:44.470Z,9.40
2023-02-22T07:14:36.131Z,9.30
2023-02-22T07:17:20.830Z,9.30
2023-02-22T07:19:53.918Z,9.30
2023-02-22T07:22:50.344Z,9.30
2023-02-22T07:25:50.621Z,9.60
2023-02-22T07:28:22.597Z,9.30
2023-02-22T07:33:41.108Z,9.30
2023-02-22T07:36:23.022Z,9.40
2023-02-22T07:39:01.323Z,9.40
2023-02-22T07:41:55.386Z,9.40
2023-02-22T07:44:45.721Z,9.40
2023-02-22T07:47:26.912Z,9.50
2023-02-22T07:50:03.672Z,9.50
2023-02-22T07:52:40.932Z,9.60
2023-02-22T07:55:17.297Z,9.60
2023-02-22T07:57:53.898Z,9.60
2023-02-22T08:00:47.823Z,9.50
2023-02-22T08:03:22.645Z,9.50
2023-02-22T08:06:02.562Z,9.50
2023-02-22T08:11:48.061Z,9.70
2023-02-22T08:14:20.624Z,9.60
2023-02-22T08:16:51.861Z,9.60
2023-02-22T08:19:28.631Z,9.70
2023-02-22T08:22:12.301Z,9.80
2023-02-22T08:24:50.732Z,9.90
2023-02-22T08:30:46.784Z,9.90
2023-02-22T08:33:22.330Z,9.90
2023-02-22T08:35:52.998Z,10.00
2023-02-22T08:38:37.911Z,10.00
2023-02-22T08:41:12.469Z,10.00
2023-02-22T08:43:44.339Z,10.00
2023-02-22T08:46:35.024Z,10.00
2023-02-22T08:49:09.477Z,10.00
2023-02-22T08:51:44.775Z,10.00
2023-02-22T08:54:17.090Z,10.10
2023-02-22T08:56:53.596Z,10.10
2023-02-22T08:59:46.824Z,10.20
2023-02-22T09:02:39.055Z,10.20
2023-02-22T09:05:10.588Z,10.30
2023-02-22T09:07:49.908Z,10.30
2023-02-22T09:10:35.965Z,10.30
2023-02-22T09:13:20.314Z,10.40
2023-02-22T09:15:59.834Z,10.50
2023-02-22T09:18:45.725Z,10.40
2023-02-22T09:21:20.767Z,10.50
2023-02-22T09:23:57.097Z,10.40
2023-02-22T09:26:52.136Z,10.30
2023-02-22T09:29:52.781Z,10.40
2023-02-22T09:32:39.532Z,10.50
2023-02-22T09:35:16.774Z,10.50
2023-02-22T09:37:50.364Z,10.60
2023-02-22T09:40:34.864Z,10.60
2023-02-22T09:43:26.954Z,10.70
2023-02-22T09:46:24.937Z,10.80
2023-02-22T09:52:27.507Z,10.80
2023-02-22T09:55:16.334Z,10.90
2023-02-22T09:58:07.503Z,10.80
2023-02-22T10:00:55.367Z,10.90
2023-02-22T10:03:45.782Z,10.90
2023-02-22T10:09:23.486Z,11.00
2023-02-22T10:12:21.741Z,11.00
2023-02-22T10:15:19.809Z,11.00
2023-02-22T10:17:57.946Z,11.00
2023-02-22T10:20:43.342Z,11.00
2023-02-22T10:23:43.612Z,11.10
2023-02-22T10:26:42.698Z,11.10
2023-02-22T10:29:19.440Z,11.20
2023-02-22T10:31:58.276Z,11.20
2023-02-22T10:34:40.656Z,11.30
2023-02-22T10:43:23.988Z,11.50
2023-02-22T10:45:56.186Z,11.50
2023-02-22T10:48:41.037Z,11.70
2023-02-22T10:54:29.266Z,11.90
2023-02-22T10:57:12.328Z,11.90
2023-02-22T10:59:58.570Z,11.90
2023-02-22T11:02:43.742Z,12.00
2023-02-22T11:05:34.261Z,12.10
2023-02-22T11:08:27.912Z,12.10
2023-02-22T11:11:13.271Z,12.20
2023-02-22T11:13:48.117Z,12.20
2023-02-22T11:16:27.632Z,12.30
2023-02-22T11:19:16.031Z,12.30
2023-02-22T11:21:53.650Z,12.20
2023-02-22T11:24:48.349Z,12.30
2023-02-22T11:27:37.989Z,12.30
2023-02-22T11:30:28.887Z,12.40
2023-02-22T11:39:04.311Z,12.50
2023-02-22T11:41:38.285Z,12.50
2023-02-22T11:44:41.174Z,12.50
2023-02-22T11:47:27.732Z,12.50
2023-02-22T11:50:06.116Z,12.50
2023-02-22T11:52:47.016Z,12.60
2023-02-22T11:58:42.544Z,12.60
2023-02-22T12:01:24.853Z,12.50
2023-02-22T12:04:21.494Z,12.50
2023-02-22T12:07:03.745Z,12.50
2023-02-22T12:09:37.657Z,12.40
2023-02-22T12:12:19.901Z,12.50
2023-02-22T12:15:03.595Z,12.40
2023-02-22T12:18:00.144Z,12.40
2023-02-22T12:20:36.697Z,12.50
2023-02-22T12:23:28.933Z,12.50
2023-02-22T12:26:21.914Z,12.50
2023-02-22T12:29:09.556Z,12.50
2023-02-22T12:32:07.517Z,12.50
2023-02-22T12:34:42.867Z,12.50
2023-02-22T12:37:30.371Z,12.70
2023-02-22T12:40:09.420Z,12.80
2023-02-22T12:42:51.362Z,13.00
2023-02-22T12:45:35.810Z,13.10
2023-02-22T12:51:28.435Z,12.80
2023-02-22T12:54:15.135Z,12.80
2023-02-22T12:57:12.493Z,12.90
2023-02-22T12:59:49.762Z,12.80
2023-02-22T13:02:48.295Z,12.80
2023-02-22T13:05:26.811Z,12.70
2023-02-22T13:08:11.701Z,12.60
2023-02-22T13:10:50.409Z,12.70
2023-02-22T13:13:23.981Z,12.70
2023-02-22T13:16:14.117Z,12.80
2023-02-22T13:19:04.861Z,12.90
2023-02-22T13:21:53.898Z,13.00
2023-02-22T13:24:43.058Z,12.90
2023-02-22T13:27:34.820Z,12.90
2023-02-22T13:30:22.003Z,12.80
2023-02-22T13:33:12.960Z,12.80
2023-02-22T13:35:58.899Z,12.80
2023-02-22T13:38:48.190Z,12.80
2023-02-22T13:41:44.920Z,12.90
2023-02-22T13:44:26.027Z,12.90
2023-02-22T13:47:27.547Z,12.90
2023-02-22T13:50:45.397Z,12.90
2023-02-22T13:53:37.076Z,12.90
2023-02-22T13:56:21.725Z,12.80
2023-02-22T13:59:12.109Z,12.90
2023-02-22T14:01:57.448Z,12.80
2023-02-22T14:05:08.833Z,12.80
2023-02-22T14:08:13.160Z,12.70
2023-02-22T14:11:07.385Z,12.70
2023-02-22T14:14:20.207Z,12.70
2023-02-22T14:17:22.904Z,12.60
2023-02-22T14:20:38.311Z,12.60
2023-02-22T14:23:27.400Z,12.60
2023-02-22T14:28:52.324Z,12.70
2023-02-22T14:31:40.844Z,12.70
2023-02-22T14:37:23.701Z,12.70
2023-02-22T14:42:55.124Z,12.60
2023-02-22T14:48:36.350Z,12.60
2023-02-22T14:51:21.501Z,12.60
2023-02-22T14:54:08.350Z,12.50
2023-02-22T14:56:46.114Z,12.50
2023-02-22T15:05:35.878Z,12.60
2023-02-22T15:08:16.190Z,12.60
2023-02-22T15:10:58.929Z,12.50
2023-02-22T15:13:46.006Z,12.50
2023-02-22T15:16:26.077Z,12.40
2023-02-22T15:18:56.510Z,12.40
2023-02-22T15:21:35.680Z,12.30
2023-02-22T15:24:12.413Z,12.30
2023-02-22T15:27:02.499Z,12.30
2023-02-22T15:29:50.803Z,12.30
2023-02-22T15:33:03.227Z,12.30
2023-02-22T15:35:38.296Z,12.20
2023-02-22T15:38:31.012Z,12.20
2023-02-22T15:41:18.002Z,12.20
2023-02-22T15:44:03.427Z,12.10
2023-02-22T15:46:43.885Z,12.10
2023-02-22T15:49:27.426Z,12.00
2023-02-22T15:52:24.696Z,12.00
2023-02-22T15:55:14.000Z,11.90
2023-02-22T15:58:05.147Z,11.90
2023-02-22T16:03:36.958Z,11.80
2023-02-22T16:06:36.463Z,11.80
2023-02-22T16:15:14.347Z,11.70
2023-02-22T16:18:01.372Z,11.60
2023-02-22T16:20:33.648Z,11.50
2023-02-22T16:23:41.657Z,11.50
2023-02-22T16:26:32.738Z,11.50
2023-02-22T16:29:11.846Z,11.40
2023-02-22T16:32:12.406Z,11.30
2023-02-22T16:35:10.057Z,11.30
2023-02-22T16:37:57.753Z,11.30
2023-02-22T16:40:34.730Z,11.20
2023-02-22T16:43:12.691Z,11.20
2023-02-22T16:45:50.343Z,11.10
2023-02-22T16:48:31.446Z,11.10
2023-02-22T16:51:31.454Z,11.10
2023-02-22T16:54:10.714Z,11.00
2023-02-22T16:57:20.306Z,11.00
2023-02-22T17:06:13.630Z,10.90
2023-02-22T17:09:10.221Z,10.90
2023-02-22T17:12:05.890Z,10.80
2023-02-22T17:14:48.772Z,10.80
2023-02-22T17:20:35.809Z,10.70
2023-02-22T17:23:09.891Z,10.70
2023-02-22T17:25:58.730Z,10.60
2023-02-22T17:28:51.121Z,10.60
2023-02-22T17:31:29.449Z,10.60
2023-02-22T17:34:07.350Z,10.60
2023-02-22T17:36:56.900Z,10.60
2023-02-22T17:39:28.844Z,10.60
2023-02-22T17:42:09.746Z,10.50
2023-02-22T17:44:57.896Z,10.50
2023-02-22T17:47:31.487Z,10.40
2023-02-22T17:50:18.500Z,10.40
2023-02-22T17:52:54.698Z,10.40
2023-02-22T17:55:28.625Z,10.30
2023-02-22T17:58:10.062Z,10.30
2023-02-22T18:00:49.908Z,10.20
2023-02-22T18:06:40.933Z,10.20
2023-02-22T18:09:29.786Z,10.20
2023-02-22T18:12:18.071Z,10.20
2023-02-22T18:15:00.295Z,10.20
2023-02-22T18:17:33.939Z,10.10
2023-02-22T18:20:26.061Z,10.10
2023-02-22T18:22:59.827Z,10.10
2023-02-22T18:25:44.941Z,10.10
2023-02-22T18:28:25.091Z,10.00
2023-02-22T18:31:21.134Z,10.00
2023-02-22T18:34:08.018Z,10.00
2023-02-22T18:39:54.706Z,10.00
2023-02-22T18:42:29.412Z,9.90
2023-02-22T18:45:08.775Z,9.90
2023-02-22T18:50:52.180Z,9.90
2023-02-22T18:53:23.973Z,9.90
2023-02-22T18:58:47.643Z,9.80
2023-02-22T19:01:27.882Z,9.80
2023-02-22T19:04:00.785Z,9.80
2023-02-22T19:07:03.654Z,9.70
2023-02-22T19:10:01.136Z,9.70
2023-02-22T19:15:43.364Z,9.70
2023-02-22T19:18:33.580Z,9.60
2023-02-22T19:24:05.581Z,9.60
2023-02-22T19:29:47.125Z,9.60
2023-02-22T19:32:23.444Z,9.50
2023-02-22T19:35:19.334Z,9.50
2023-02-22T19:38:09.622Z,9.50
2023-02-22T19:43:33.732Z,9.40
2023-02-22T19:46:12.944Z,9.40
2023-02-22T19:49:02.372Z,9.40
2023-02-22T19:51:46.361Z,9.40
2023-02-22T19:54:36.291Z,9.40
2023-02-22T20:00:42.582Z,9.30
2023-02-22T20:03:27.377Z,9.30
2023-02-22T20:08:47.052Z,9.20
2023-02-22T20:11:32.814Z,9.20
2023-02-22T20:14:11.972Z,9.20
2023-02-22T20:16:53.581Z,9.20
2023-02-22T20:22:39.064Z,9.10
2023-02-22T20:25:27.524Z,9.10
2023-02-22T20:28:00.619Z,9.10
2023-02-22T20:30:33.411Z,9.10
2023-02-22T20:33:46.657Z,9.00
2023-02-22T20:39:17.740Z,9.00
2023-02-22T20:41:47.823Z,9.00
2023-02-22T20:44:17.420Z,9.00
2023-02-22T20:46:48.152Z,9.00
2023-02-22T20:49:20.618Z,9.00
2023-02-22T20:51:51.018Z,9.00
2023-02-22T20:54:21.892Z,9.00
2023-02-22T20:56:53.026Z,8.90
2023-02-22T20:59:22.410Z,8.90
2023-02-22T21:01:53.735Z,8.90
2023-02-22T21:04:24.337Z,8.90
2023-02-22T21:06:54.415Z,8.90
2023-02-22T21:09:25.748Z,8.90
2023-02-22T21:11:54.867Z,8.90
2023-02-22T21:14:28.920Z,8.90
2023-02-22T21:16:59.612Z,8.90
2023-02-22T21:19:31.026Z,8.90
2023-02-22T21:22:03.338Z,8.90
2023-02-22T21:25:09.332Z,8.90
2023-02-22T21:27:42.538Z,8.90
2023-02-22T21:30:13.431Z,8.80
2023-02-22T21:32:42.879Z,8.80
2023-02-22T21:35:11.826Z,8.80
2023-02-22T21:37:40.939Z,8.80
2023-02-22T21:40:13.147Z,8.70
2023-02-22T21:42:44.004Z,8.70
2023-02-22T21:45:14.382Z,8.70
2023-02-22T21:47:43.520Z,8.70
2023-02-22T21:50:14.059Z,8.70
2023-02-22T21:53:01.419Z,8.70
2023-02-22T21:55:31.179Z,8.70
2023-02-22T21:58:02.113Z,8.70
2023-02-22T22:00:32.472Z,8.70
2023-02-22T22:03:08.141Z,8.70
2023-02-22T22:05:40.620Z,8.70
2023-02-22T22:08:11.497Z,8.70
2023-02-22T22:10:41.737Z,8.70
2023-02-22T22:13:12.146Z,8.70
2023-02-22T22:15:42.252Z,8.70
2023-02-22T22:18:12.133Z,8.70
2023-02-22T22:20:42.402Z,8.70
2023-02-22T22:23:11.332Z,8.70
2023-02-22T22:25:40.614Z,8.80
2023-02-22T22:28:10.051Z,8.80
2023-02-22T22:30:40.651Z,8.90
2023-02-22T22:33:11.658Z,8.90
2023-02-22T22:35:43.171Z,8.90
2023-02-22T22:38:12.132Z,8.90
2023-02-22T22:40:41.160Z,8.90
2023-02-22T22:43:09.889Z,9.00
2023-02-22T22:45:41.261Z,9.00
2023-02-22T22:48:15.349Z,9.00
2023-02-22T22:50:47.009Z,9.00
2023-02-22T22:53:17.089Z,9.00
2023-02-22T22:55:46.379Z,9.10
2023-02-22T22:58:15.328Z,9.10
2023-02-22T23:00:46.859Z,9.10
2023-02-22T23:03:18.995Z,9.10
2023-02-22T23:05:49.095Z,9.10
2023-02-22T23:08:18.877Z,9.20
2023-02-22T23:10:47.808Z,9.20
2023-02-22T23:13:16.627Z,9.20
2023-02-22T23:15:48.976Z,9.30
2023-02-22T23:18:20.777Z,9.30
2023-02-22T23:20:55.649Z,9.30
2023-02-22T23:23:28.135Z,9.00
2023-02-22T23:26:08.931Z,9.30
2023-02-22T23:28:38.725Z,9.30
2023-02-22T23:31:15.853Z,9.40
2023-02-22T23:33:45.732Z,9.40
2023-02-22T23:36:15.624Z,9.40
2023-02-22T23:38:45.260Z,9.40
2023-02-22T23:41:18.038Z,9.40
2023-02-22T23:43:48.464Z,9.40
2023-02-22T23:46:20.367Z,9.40
2023-02-22T23:48:52.137Z,9.40
2023-02-22T23:51:25.665Z,9.40
2023-02-22T23:53:56.173Z,9.40
2023-02-22T23:56:26.690Z,9.30
2023-02-22T23:58:57.767Z,9.20
